createdAt,value
2023-05-09T00:01:50.194Z,14.84
2023-05-09T00:08:10.157Z,14.77
2023-05-09T00:14:33.315Z,14.71
2023-05-09T00:20:53.137Z,14.62
2023-05-09T00:27:16.243Z,14.56
2023-05-09T00:33:36.280Z,14.56
2023-05-09T00:39:59.265Z,14.57
2023-05-09T00:46:19.184Z,14.56
2023-05-09T00:52:42.330Z,14.55
2023-05-09T00:59:02.184Z,14.57
2023-05-09T01:05:25.210Z,14.54
2023-05-09T01:11:45.319Z,14.51
2023-05-09T01:18:08.210Z,14.5
2023-05-09T01:24:28.225Z,14.48
2023-05-09T01:30:51.356Z,14.47
2023-05-09T01:37:11.164Z,14.47
2023-05-09T01:43:34.202Z,14.46
2023-05-09T01:49:54.307Z,14.44
2023-05-09T01:56:17.339Z,14.45
2023-05-09T02:02:37.254Z,14.46
2023-05-09T02:09:00.337Z,14.47
2023-05-09T02:15:20.188Z,14.5
2023-05-09T02:21:43.180Z,14.51
2023-05-09T02:28:03.290Z,14.53
2023-05-09T02:34:26.189Z,14.53
2023-05-09T02:40:46.151Z,14.52
2023-05-09T02:47:09.313Z,14.49
2023-05-09T02:53:29.195Z,14.48
2023-05-09T02:59:52.180Z,14.49
2023-05-09T03:06:12.358Z,14.5
2023-05-09T03:12:35.199Z,14.53
2023-05-09T03:18:55.173Z,14.56
2023-05-09T03:36:23.223Z,14.56
2023-05-09T03:42:43.182Z,14.56
2023-05-09T03:49:06.179Z,14.58
2023-05-09T03:55:26.312Z,14.61
2023-05-09T04:01:49.204Z,14.62
2023-05-09T04:08:09.170Z,14.63
2023-05-09T04:14:32.288Z,14.66
2023-05-09T04:20:52.217Z,14.69
2023-05-09T04:27:15.167Z,14.7
2023-05-09T04:33:35.313Z,14.72
2023-05-09T04:39:58.199Z,14.76
2023-05-09T04:46:18.244Z,14.81
2023-05-09T04:52:41.347Z,14.87
2023-05-09T04:59:01.392Z,14.92
2023-05-09T05:05:25.228Z,14.98
2023-05-09T05:11:53.374Z,15.02
2023-05-09T05:18:07.265Z,15.1
2023-05-09T05:24:27.243Z,15.19
2023-05-09T05:30:50.299Z,15.27
2023-05-09T05:37:10.225Z,15.35
2023-05-09T05:43:33.172Z,15.44
2023-05-09T05:49:53.284Z,15.55
2023-05-09T05:56:16.189Z,15.69
2023-05-09T06:02:36.248Z,15.84
2023-05-09T06:08:59.427Z,15.97
2023-05-09T06:15:19.163Z,16.1
2023-05-09T06:21:42.215Z,16.21
2023-05-09T06:28:02.431Z,16.33
2023-05-09T06:34:25.146Z,16.44
2023-05-09T06:40:45.216Z,16.53
2023-05-09T06:47:08.329Z,16.62
2023-05-09T06:53:28.155Z,16.71
2023-05-09T06:59:51.342Z,16.84
2023-05-09T07:06:11.227Z,17.03
2023-05-09T07:12:34.196Z,17.22
2023-05-09T07:18:54.174Z,17.42
2023-05-09T07:25:17.383Z,17.68
2023-05-09T07:31:37.499Z,18
2023-05-09T07:38:00.348Z,18.32
2023-05-09T07:44:20.353Z,18.57
2023-05-09T07:50:43.183Z,18.67
2023-05-09T07:57:03.165Z,18.71
2023-05-09T08:03:26.323Z,18.73
2023-05-09T08:09:46.197Z,18.78
2023-05-09T08:16:09.491Z,18.94
2023-05-09T08:22:29.576Z,19.03
2023-05-09T08:28:52.200Z,19.18
2023-05-09T08:35:12.362Z,19.44
2023-05-09T08:50:46.235Z,19.87
2023-05-09T08:57:06.174Z,19.92
2023-05-09T09:03:29.339Z,19.92
2023-05-09T09:09:49.328Z,20
2023-05-09T09:16:12.177Z,20.12
2023-05-09T09:22:32.193Z,20.29
2023-05-09T09:28:55.272Z,20.45
2023-05-09T09:35:15.260Z,20.51
2023-05-09T09:41:38.274Z,20.59
2023-05-09T09:47:58.299Z,20.61
2023-05-09T09:54:21.217Z,20.81
2023-05-09T10:00:41.159Z,21.25
2023-05-09T10:07:04.288Z,21.77
2023-05-09T10:13:24.245Z,21.98
2023-05-09T10:19:47.183Z,22.17
2023-05-09T10:26:07.233Z,22.26
2023-05-09T10:32:30.191Z,22.29
2023-05-09T10:38:50.171Z,22.37
2023-05-09T10:45:13.556Z,22.39
2023-05-09T10:51:33.176Z,22.43
2023-05-09T10:57:56.202Z,22.53
2023-05-09T11:04:16.549Z,22.7
2023-05-09T11:10:40.440Z,23.02
2023-05-09T11:17:00.165Z,23.29
2023-05-09T11:23:23.325Z,23.66
2023-05-09T11:29:43.146Z,23.67
2023-05-09T11:36:06.154Z,23.55
2023-05-09T11:42:26.298Z,23.54
2023-05-09T11:48:49.176Z,23.66
2023-05-09T11:55:10.886Z,23.81
2023-05-09T12:01:32.281Z,23.74
2023-05-09T12:07:52.159Z,23.79
2023-05-09T12:14:15.236Z,24.07
2023-05-09T12:20:35.351Z,24.21
2023-05-09T12:26:58.181Z,24.29
2023-05-09T12:33:18.176Z,24.36
2023-05-09T12:39:41.549Z,24.31
2023-05-09T12:46:01.397Z,24.15
2023-05-09T12:52:24.179Z,24.21
2023-05-09T12:58:44.378Z,24.3
2023-05-09T13:05:07.204Z,24.21
2023-05-09T13:11:27.182Z,24.14
2023-05-09T13:17:50.432Z,24.09
2023-05-09T13:24:10.212Z,24.06
2023-05-09T13:30:33.214Z,23.95
2023-05-09T13:36:53.336Z,23.79
2023-05-09T13:43:16.169Z,23.84
2023-05-09T13:49:36.260Z,23.88
2023-05-09T13:55:59.535Z,23.71
2023-05-09T14:11:30.239Z,23.32
2023-05-09T14:17:50.160Z,23.05
2023-05-09T14:24:15.117Z,22.94
2023-05-09T14:30:33.290Z,22.83
2023-05-09T14:36:56.170Z,22.64
2023-05-09T14:43:16.316Z,22.45
2023-05-09T14:49:39.320Z,22.29
2023-05-09T14:55:59.178Z,22
2023-05-09T15:02:22.175Z,21.57
2023-05-09T15:08:42.276Z,20.39
2023-05-09T15:15:05.180Z,19.5
2023-05-09T15:21:25.147Z,18.96
2023-05-09T15:27:48.275Z,18.34
2023-05-09T15:34:08.184Z,18.04
2023-05-09T15:40:31.171Z,17.83
2023-05-09T15:46:51.310Z,17.71
2023-05-09T15:53:14.185Z,17.68
2023-05-09T15:59:34.189Z,17.68
2023-05-09T16:05:57.303Z,17.68
2023-05-09T16:12:17.182Z,17.62
2023-05-09T16:18:40.222Z,17.52
2023-05-09T16:25:00.290Z,17.48
2023-05-09T16:31:23.245Z,17.44
2023-05-09T16:37:43.175Z,17.39
2023-05-09T16:44:06.319Z,17.4
2023-05-09T16:50:26.178Z,17.32
2023-05-09T16:56:49.230Z,17.29
2023-05-09T17:03:09.391Z,17.26
2023-05-09T17:09:32.285Z,17.17
2023-05-09T17:15:52.182Z,17.11
2023-05-09T17:22:15.312Z,17.1
2023-05-09T17:28:35.216Z,17.06
2023-05-09T17:34:58.162Z,16.97
2023-05-09T17:41:18.314Z,16.9
2023-05-09T17:47:41.195Z,16.84
2023-05-09T17:54:01.168Z,16.77
2023-05-09T18:00:24.324Z,16.68
2023-05-09T18:06:44.191Z,16.62
2023-05-09T18:13:07.253Z,16.58
2023-05-09T18:19:27.331Z,16.54
2023-05-09T18:25:50.163Z,16.5
2023-05-09T18:32:10.212Z,16.44
2023-05-09T18:38:33.276Z,16.37
2023-05-09T18:44:53.190Z,16.29
2023-05-09T18:51:16.158Z,16.25
2023-05-09T18:57:36.311Z,16.25
2023-05-09T19:03:59.192Z,16.25
2023-05-09T19:10:19.180Z,16.24
2023-05-09T19:16:42.360Z,16.19
2023-05-09T19:23:02.160Z,16.13
2023-05-09T19:39:30.170Z,15.99
2023-05-09T19:45:50.210Z,15.94
2023-05-09T19:52:13.186Z,15.92
2023-05-09T19:58:33.265Z,15.9
2023-05-09T20:04:56.179Z,15.64
2023-05-09T20:11:16.169Z,15.3
2023-05-09T20:17:39.198Z,14.9
2023-05-09T20:23:59.171Z,14.44
2023-05-09T20:30:22.165Z,14.15
2023-05-09T20:36:42.170Z,13.93
2023-05-09T20:43:05.234Z,13.76
2023-05-09T20:49:25.337Z,13.68
2023-05-09T20:55:49.620Z,13.6
2023-05-09T21:02:08.208Z,13.52
2023-05-09T21:08:31.164Z,13.46
2023-05-09T21:14:51.203Z,13.36
2023-05-09T21:21:14.165Z,13.29
2023-05-09T21:27:34.189Z,13.28
2023-05-09T21:33:57.216Z,13.29
2023-05-09T21:40:17.342Z,13.34
2023-05-09T21:46:40.230Z,13.38
2023-05-09T21:53:00.187Z,13.38
2023-05-09T21:59:23.145Z,13.36
2023-05-09T22:22:20.209Z,13.32
2023-05-09T22:28:40.165Z,13.35
2023-05-09T22:35:03.152Z,13.34
2023-05-09T22:41:23.201Z,13.33
2023-05-09T22:47:46.186Z,13.35
2023-05-09T22:54:06.197Z,13.34
2023-05-09T23:00:29.198Z,13.37
2023-05-09T23:06:49.214Z,13.43
2023-05-09T23:13:12.283Z,13.45
2023-05-09T23:19:32.195Z,13.43
2023-05-09T23:25:55.143Z,13.43
2023-05-09T23:32:15.211Z,13.41
2023-05-09T23:38:38.212Z,13.38
2023-05-09T23:44:58.210Z,13.36
2023-05-09T23:51:21.139Z,13.35
2023-05-09T23:57:41.202Z,13.37
